sensor_id;sensor_type;location;lat;lon;timestamp;P1;durP1;ratioP1;P2;durP2;ratioP2
3433;SDS011;1730;41.932;25.548;2023-03-01T00:01:02;19.73;;;12.30;;
3433;SDS011;1730;41.932;25.548;2023-03-01T00:03:28;18.87;;;11.47;;
3433;SDS011;1730;41.932;25.548;2023-03-01T00:05:54;23.67;;;13.17;;
3433;SDS011;1730;41.932;25.548;2023-03-01T00:08:19;19.17;;;11.53;;
3433;SDS011;1730;41.932;25.548;2023-03-01T00:10:45;15.30;;;10.47;;
3433;SDS011;1730;41.932;25.548;2023-03-01T00:13:10;21.30;;;11.77;;
3433;SDS011;1730;41.932;25.548;2023-03-01T00:15:40;30.53;;;15.50;;
3433;SDS011;1730;41.932;25.548;2023-03-01T00:18:06;32.23;;;13.60;;
3433;SDS011;1730;41.932;25.548;2023-03-01T00:20:33;25.77;;;14.53;;
3433;SDS011;1730;41.932;25.548;2023-03-01T00:22:59;31.73;;;14.30;;
3433;SDS011;1730;41.932;25.548;2023-03-01T00:25:24;26.77;;;14.20;;
3433;SDS011;1730;41.932;25.548;2023-03-01T00:27:50;24.67;;;13.50;;
3433;SDS011;1730;41.932;25.548;2023-03-01T00:30:15;22.37;;;12.30;;
3433;SDS011;1730;41.932;25.548;2023-03-01T00:32:41;14.43;;;10.03;;
3433;SDS011;1730;41.932;25.548;2023-03-01T00:35:07;19.73;;;11.60;;
3433;SDS011;1730;41.932;25.548;2023-03-01T00:37:33;20.87;;;11.27;;
3433;SDS011;1730;41.932;25.548;2023-03-01T00:39:58;18.80;;;11.37;;
3433;SDS011;1730;41.932;25.548;2023-03-01T00:42:24;23.50;;;13.20;;
3433;SDS011;1730;41.932;25.548;2023-03-01T00:44:49;27.77;;;13.83;;
3433;SDS011;1730;41.932;25.548;2023-03-01T00:47:15;26.10;;;13.80;;
3433;SDS011;1730;41.932;25.548;2023-03-01T00:49:40;29.60;;;13.13;;
3433;SDS011;1730;41.932;25.548;2023-03-01T00:52:06;41.40;;;18.80;;
3433;SDS011;1730;41.932;25.548;2023-03-01T00:54:31;56.03;;;20.30;;
3433;SDS011;1730;41.932;25.548;2023-03-01T00:56:57;52.43;;;21.17;;
3433;SDS011;1730;41.932;25.548;2023-03-01T00:59:22;51.90;;;19.77;;
3433;SDS011;1730;41.932;25.548;2023-03-01T01:01:47;68.77;;;26.73;;
3433;SDS011;1730;41.932;25.548;2023-03-01T01:04:13;76.83;;;27.83;;
3433;SDS011;1730;41.932;25.548;2023-03-01T01:06:40;85.20;;;29.17;;
3433;SDS011;1730;41.932;25.548;2023-03-01T01:09:07;110.07;;;35.77;;
3433;SDS011;1730;41.932;25.548;2023-03-01T01:11:34;99.80;;;33.73;;
3433;SDS011;1730;41.932;25.548;2023-03-01T01:14:03;98.23;;;32.63;;
3433;SDS011;1730;41.932;25.548;2023-03-01T01:16:29;107.43;;;36.30;;
3433;SDS011;1730;41.932;25.548;2023-03-01T01:18:55;94.57;;;34.63;;
3433;SDS011;1730;41.932;25.548;2023-03-01T01:21:22;85.40;;;32.77;;
3433;SDS011;1730;41.932;25.548;2023-03-01T01:23:49;81.90;;;32.60;;
3433;SDS011;1730;41.932;25.548;2023-03-01T01:26:20;71.00;;;29.97;;
3433;SDS011;1730;41.932;25.548;2023-03-01T01:28:47;57.10;;;29.67;;
3433;SDS011;1730;41.932;25.548;2023-03-01T01:31:14;52.30;;;28.57;;
3433;SDS011;1730;41.932;25.548;2023-03-01T01:33:39;48.67;;;27.20;;
3433;SDS011;1730;41.932;25.548;2023-03-01T01:36:05;52.43;;;28.27;;
3433;SDS011;1730;41.932;25.548;2023-03-01T01:38:32;49.00;;;26.70;;
3433;SDS011;1730;41.932;25.548;2023-03-01T01:40:58;52.10;;;27.10;;
3433;SDS011;1730;41.932;25.548;2023-03-01T01:43:28;56.77;;;28.90;;
3433;SDS011;1730;41.932;25.548;2023-03-01T01:46:01;55.90;;;29.00;;
3433;SDS011;1730;41.932;25.548;2023-03-01T01:48:40;47.00;;;26.03;;
3433;SDS011;1730;41.932;25.548;2023-03-01T01:51:11;44.07;;;25.90;;
3433;SDS011;1730;41.932;25.548;2023-03-01T01:53:43;39.60;;;24.67;;
3433;SDS011;1730;41.932;25.548;2023-03-01T01:56:11;32.40;;;22.33;;
3433;SDS011;1730;41.932;25.548;2023-03-01T01:58:39;33.67;;;22.77;;
3433;SDS011;1730;41.932;25.548;2023-03-01T02:01:06;36.60;;;23.20;;
3433;SDS011;1730;41.932;25.548;2023-03-01T02:03:33;32.20;;;22.50;;
3433;SDS011;1730;41.932;25.548;2023-03-01T02:06:06;29.13;;;21.60;;
3433;SDS011;1730;41.932;25.548;2023-03-01T02:08:33;31.37;;;21.07;;
3433;SDS011;1730;41.932;25.548;2023-03-01T02:11:02;24.03;;;18.77;;
3433;SDS011;1730;41.932;25.548;2023-03-01T02:13:31;22.07;;;18.37;;
3433;SDS011;1730;41.932;25.548;2023-03-01T02:15:58;22.60;;;18.00;;
3433;SDS011;1730;41.932;25.548;2023-03-01T02:18:24;23.27;;;17.63;;
3433;SDS011;1730;41.932;25.548;2023-03-01T02:23:54;21.63;;;16.33;;
3433;SDS011;1730;41.932;25.548;2023-03-01T02:28:58;23.40;;;18.13;;
3433;SDS011;1730;41.932;25.548;2023-03-01T02:31:24;24.07;;;18.50;;
3433;SDS011;1730;41.932;25.548;2023-03-01T02:39:21;34.10;;;21.37;;
3433;SDS011;1730;41.932;25.548;2023-03-01T02:41:51;39.97;;;23.07;;
3433;SDS011;1730;41.932;25.548;2023-03-01T02:44:19;47.70;;;25.53;;
3433;SDS011;1730;41.932;25.548;2023-03-01T02:46:46;46.33;;;27.53;;
3433;SDS011;1730;41.932;25.548;2023-03-01T02:49:26;54.50;;;28.60;;
3433;SDS011;1730;41.932;25.548;2023-03-01T02:52:06;64.53;;;29.30;;
3433;SDS011;1730;41.932;25.548;2023-03-01T02:57:11;84.20;;;36.60;;
3433;SDS011;1730;41.932;25.548;2023-03-01T02:59:37;91.10;;;38.40;;
3433;SDS011;1730;41.932;25.548;2023-03-01T03:02:05;96.43;;;37.93;;
3433;SDS011;1730;41.932;25.548;2023-03-01T03:05:11;111.13;;;37.43;;
3433;SDS011;1730;41.932;25.548;2023-03-01T03:07:40;136.20;;;41.70;;
3433;SDS011;1730;41.932;25.548;2023-03-01T03:10:08;139.27;;;44.77;;
3433;SDS011;1730;41.932;25.548;2023-03-01T03:12:36;162.83;;;46.67;;
3433;SDS011;1730;41.932;25.548;2023-03-01T03:15:02;155.33;;;45.67;;
3433;SDS011;1730;41.932;25.548;2023-03-01T03:17:38;143.07;;;42.00;;
3433;SDS011;1730;41.932;25.548;2023-03-01T03:20:05;137.97;;;42.77;;
3433;SDS011;1730;41.932;25.548;2023-03-01T03:22:36;131.13;;;36.67;;
3433;SDS011;1730;41.932;25.548;2023-03-01T03:25:03;107.57;;;37.77;;
3433;SDS011;1730;41.932;25.548;2023-03-01T03:27:29;109.73;;;39.00;;
3433;SDS011;1730;41.932;25.548;2023-03-01T03:29:57;75.20;;;31.73;;
3433;SDS011;1730;41.932;25.548;2023-03-01T03:32:22;66.90;;;32.60;;
3433;SDS011;1730;41.932;25.548;2023-03-01T03:34:48;66.60;;;30.40;;
3433;SDS011;1730;41.932;25.548;2023-03-01T03:37:14;38.53;;;25.30;;
3433;SDS011;1730;41.932;25.548;2023-03-01T03:39:59;44.57;;;26.30;;
3433;SDS011;1730;41.932;25.548;2023-03-01T03:42:25;50.40;;;28.03;;
3433;SDS011;1730;41.932;25.548;2023-03-01T03:45:09;69.90;;;32.90;;
3433;SDS011;1730;41.932;25.548;2023-03-01T03:47:35;76.03;;;35.63;;
3433;SDS011;1730;41.932;25.548;2023-03-01T03:50:19;74.07;;;34.00;;
3433;SDS011;1730;41.932;25.548;2023-03-01T03:52:45;61.03;;;27.90;;
3433;SDS011;1730;41.932;25.548;2023-03-01T03:55:11;45.57;;;23.77;;
3433;SDS011;1730;41.932;25.548;2023-03-01T03:57:38;55.33;;;27.73;;
3433;SDS011;1730;41.932;25.548;2023-03-01T04:00:04;59.30;;;29.93;;
3433;SDS011;1730;41.932;25.548;2023-03-01T04:02:31;58.53;;;30.80;;
3433;SDS011;1730;41.932;25.548;2023-03-01T04:04:56;63.40;;;29.87;;
3433;SDS011;1730;41.932;25.548;2023-03-01T04:07:22;69.67;;;32.67;;
3433;SDS011;1730;41.932;25.548;2023-03-01T04:09:47;75.10;;;31.90;;
3433;SDS011;1730;41.932;25.548;2023-03-01T04:12:12;79.10;;;31.23;;
3433;SDS011;1730;41.932;25.548;2023-03-01T04:14:38;73.50;;;30.67;;
3433;SDS011;1730;41.932;25.548;2023-03-01T04:17:03;78.13;;;33.17;;
3433;SDS011;1730;41.932;25.548;2023-03-01T04:19:31;80.57;;;33.77;;
3433;SDS011;1730;41.932;25.548;2023-03-01T04:22:04;79.73;;;34.33;;
3433;SDS011;1730;41.932;25.548;2023-03-01T04:24:37;94.47;;;38.10;;
3433;SDS011;1730;41.932;25.548;2023-03-01T04:27:03;109.27;;;40.77;;
3433;SDS011;1730;41.932;25.548;2023-03-01T04:29:28;105.33;;;39.43;;
3433;SDS011;1730;41.932;25.548;2023-03-01T04:31:54;100.50;;;39.37;;
3433;SDS011;1730;41.932;25.548;2023-03-01T04:34:19;74.17;;;34.70;;
3433;SDS011;1730;41.932;25.548;2023-03-01T04:36:45;100.47;;;38.40;;
3433;SDS011;1730;41.932;25.548;2023-03-01T04:39:11;88.53;;;35.37;;
3433;SDS011;1730;41.932;25.548;2023-03-01T04:41:40;100.63;;;38.10;;
3433;SDS011;1730;41.932;25.548;2023-03-01T04:44:08;116.50;;;41.50;;
3433;SDS011;1730;41.932;25.548;2023-03-01T04:46:34;113.73;;;41.80;;
3433;SDS011;1730;41.932;25.548;2023-03-01T04:49:02;107.03;;;41.83;;
3433;SDS011;1730;41.932;25.548;2023-03-01T04:51:32;117.80;;;42.30;;
3433;SDS011;1730;41.932;25.548;2023-03-01T04:53:58;116.73;;;42.80;;
3433;SDS011;1730;41.932;25.548;2023-03-01T04:56:26;110.07;;;41.17;;
3433;SDS011;1730;41.932;25.548;2023-03-01T04:58:52;124.47;;;43.03;;
3433;SDS011;1730;41.932;25.548;2023-03-01T05:01:20;118.67;;;44.50;;
3433;SDS011;1730;41.932;25.548;2023-03-01T05:03:47;121.70;;;42.10;;
3433;SDS011;1730;41.932;25.548;2023-03-01T05:06:14;113.23;;;41.50;;
3433;SDS011;1730;41.932;25.548;2023-03-01T05:08:41;135.53;;;43.90;;
3433;SDS011;1730;41.932;25.548;2023-03-01T05:11:08;157.53;;;47.37;;
3433;SDS011;1730;41.932;25.548;2023-03-01T05:13:35;170.33;;;48.00;;
3433;SDS011;1730;41.932;25.548;2023-03-01T05:16:02;146.23;;;43.83;;
3433;SDS011;1730;41.932;25.548;2023-03-01T05:18:29;144.53;;;43.17;;
3433;SDS011;1730;41.932;25.548;2023-03-01T05:21:01;106.90;;;35.07;;
3433;SDS011;1730;41.932;25.548;2023-03-01T05:23:31;110.60;;;37.37;;
3433;SDS011;1730;41.932;25.548;2023-03-01T05:25:58;122.70;;;37.53;;
3433;SDS011;1730;41.932;25.548;2023-03-01T05:28:25;123.93;;;42.07;;
3433;SDS011;1730;41.932;25.548;2023-03-01T05:30:53;123.57;;;39.90;;
3433;SDS011;1730;41.932;25.548;2023-03-01T05:33:19;127.93;;;42.50;;
3433;SDS011;1730;41.932;25.548;2023-03-01T05:35:48;127.53;;;42.80;;
3433;SDS011;1730;41.932;25.548;2023-03-01T05:38:15;130.03;;;40.20;;
3433;SDS011;1730;41.932;25.548;2023-03-01T05:40:42;124.80;;;43.33;;
3433;SDS011;1730;41.932;25.548;2023-03-01T05:43:09;112.53;;;41.17;;
3433;SDS011;1730;41.932;25.548;2023-03-01T05:45:35;113.27;;;41.90;;
3433;SDS011;1730;41.932;25.548;2023-03-01T05:48:03;118.70;;;42.37;;
3433;SDS011;1730;41.932;25.548;2023-03-01T05:50:32;116.00;;;44.57;;
3433;SDS011;1730;41.932;25.548;2023-03-01T05:53:03;83.30;;;36.10;;
3433;SDS011;1730;41.932;25.548;2023-03-01T05:55:33;85.63;;;34.90;;
3433;SDS011;1730;41.932;25.548;2023-03-01T05:58:04;81.90;;;34.17;;
3433;SDS011;1730;41.932;25.548;2023-03-01T06:00:34;93.17;;;37.83;;
3433;SDS011;1730;41.932;25.548;2023-03-01T06:03:00;108.87;;;40.03;;
3433;SDS011;1730;41.932;25.548;2023-03-01T06:05:27;105.60;;;41.87;;
3433;SDS011;1730;41.932;25.548;2023-03-01T06:07:53;87.23;;;39.03;;
3433;SDS011;1730;41.932;25.548;2023-03-01T06:10:19;59.30;;;31.70;;
3433;SDS011;1730;41.932;25.548;2023-03-01T06:12:46;59.60;;;31.87;;
3433;SDS011;1730;41.932;25.548;2023-03-01T06:15:13;40.23;;;25.87;;
3433;SDS011;1730;41.932;25.548;2023-03-01T06:17:41;38.07;;;26.20;;
3433;SDS011;1730;41.932;25.548;2023-03-01T06:20:09;50.00;;;27.93;;
3433;SDS011;1730;41.932;25.548;2023-03-01T06:22:40;40.97;;;26.27;;
3433;SDS011;1730;41.932;25.548;2023-03-01T06:25:07;42.00;;;28.03;;
3433;SDS011;1730;41.932;25.548;2023-03-01T06:27:42;49.27;;;31.43;;
3433;SDS011;1730;41.932;25.548;2023-03-01T06:30:09;53.93;;;32.70;;
3433;SDS011;1730;41.932;25.548;2023-03-01T06:32:36;58.47;;;33.80;;
3433;SDS011;1730;41.932;25.548;2023-03-01T06:35:03;61.00;;;34.90;;
3433;SDS011;1730;41.932;25.548;2023-03-01T06:37:29;65.50;;;35.20;;
3433;SDS011;1730;41.932;25.548;2023-03-01T06:39:55;65.60;;;35.93;;
3433;SDS011;1730;41.932;25.548;2023-03-01T06:42:20;71.13;;;36.20;;
3433;SDS011;1730;41.932;25.548;2023-03-01T06:44:46;68.50;;;35.27;;
3433;SDS011;1730;41.932;25.548;2023-03-01T06:47:11;76.33;;;37.17;;
3433;SDS011;1730;41.932;25.548;2023-03-01T06:49:37;65.80;;;34.33;;
3433;SDS011;1730;41.932;25.548;2023-03-01T06:52:02;84.23;;;36.37;;
3433;SDS011;1730;41.932;25.548;2023-03-01T06:54:28;64.43;;;32.10;;
3433;SDS011;1730;41.932;25.548;2023-03-01T06:56:53;68.87;;;32.27;;
3433;SDS011;1730;41.932;25.548;2023-03-01T06:59:19;69.13;;;33.37;;
3433;SDS011;1730;41.932;25.548;2023-03-01T07:01:44;81.03;;;36.57;;
3433;SDS011;1730;41.932;25.548;2023-03-01T07:04:10;77.50;;;37.97;;
3433;SDS011;1730;41.932;25.548;2023-03-01T07:06:36;84.20;;;35.87;;
3433;SDS011;1730;41.932;25.548;2023-03-01T07:09:02;95.20;;;39.33;;
3433;SDS011;1730;41.932;25.548;2023-03-01T07:11:27;88.10;;;36.13;;
3433;SDS011;1730;41.932;25.548;2023-03-01T07:13:53;108.00;;;40.53;;
3433;SDS011;1730;41.932;25.548;2023-03-01T07:16:20;102.00;;;38.33;;
3433;SDS011;1730;41.932;25.548;2023-03-01T07:18:45;92.03;;;37.77;;
3433;SDS011;1730;41.932;25.548;2023-03-01T07:21:12;105.57;;;41.47;;
3433;SDS011;1730;41.932;25.548;2023-03-01T07:23:38;105.20;;;38.90;;
3433;SDS011;1730;41.932;25.548;2023-03-01T07:26:04;105.67;;;38.87;;
3433;SDS011;1730;41.932;25.548;2023-03-01T07:28:30;102.00;;;39.30;;
3433;SDS011;1730;41.932;25.548;2023-03-01T07:31:00;87.53;;;37.03;;
3433;SDS011;1730;41.932;25.548;2023-03-01T07:33:26;72.73;;;33.50;;
3433;SDS011;1730;41.932;25.548;2023-03-01T07:35:55;91.80;;;38.40;;
3433;SDS011;1730;41.932;25.548;2023-03-01T07:38:25;97.03;;;38.53;;
3433;SDS011;1730;41.932;25.548;2023-03-01T07:40:51;95.40;;;40.53;;
3433;SDS011;1730;41.932;25.548;2023-03-01T07:43:17;99.17;;;41.10;;
3433;SDS011;1730;41.932;25.548;2023-03-01T07:45:42;83.67;;;38.03;;
3433;SDS011;1730;41.932;25.548;2023-03-01T07:48:08;81.43;;;34.27;;
3433;SDS011;1730;41.932;25.548;2023-03-01T07:50:35;88.77;;;38.33;;
3433;SDS011;1730;41.932;25.548;2023-03-01T07:53:00;90.43;;;36.33;;
3433;SDS011;1730;41.932;25.548;2023-03-01T07:55:26;89.17;;;38.80;;
3433;SDS011;1730;41.932;25.548;2023-03-01T07:57:51;86.57;;;36.63;;
3433;SDS011;1730;41.932;25.548;2023-03-01T08:00:17;78.70;;;37.43;;
3433;SDS011;1730;41.932;25.548;2023-03-01T08:02:42;76.50;;;34.10;;
3433;SDS011;1730;41.932;25.548;2023-03-01T08:05:08;81.00;;;36.33;;
3433;SDS011;1730;41.932;25.548;2023-03-01T08:07:35;90.73;;;37.40;;
3433;SDS011;1730;41.932;25.548;2023-03-01T08:10:00;90.83;;;35.73;;
3433;SDS011;1730;41.932;25.548;2023-03-01T08:12:26;105.03;;;41.30;;
3433;SDS011;1730;41.932;25.548;2023-03-01T08:14:53;102.93;;;41.27;;
3433;SDS011;1730;41.932;25.548;2023-03-01T08:17:19;107.33;;;42.63;;
3433;SDS011;1730;41.932;25.548;2023-03-01T08:19:44;112.17;;;43.90;;
3433;SDS011;1730;41.932;25.548;2023-03-01T08:22:10;95.60;;;38.30;;
3433;SDS011;1730;41.932;25.548;2023-03-01T08:24:35;112.20;;;40.70;;
3433;SDS011;1730;41.932;25.548;2023-03-01T08:27:01;101.10;;;34.43;;
3433;SDS011;1730;41.932;25.548;2023-03-01T08:29:30;62.13;;;25.67;;
3433;SDS011;1730;41.932;25.548;2023-03-01T08:31:56;83.97;;;30.83;;
3433;SDS011;1730;41.932;25.548;2023-03-01T08:34:22;80.23;;;30.90;;
3433;SDS011;1730;41.932;25.548;2023-03-01T08:36:47;84.97;;;33.80;;
3433;SDS011;1730;41.932;25.548;2023-03-01T08:39:14;82.00;;;32.50;;
3433;SDS011;1730;41.932;25.548;2023-03-01T08:41:42;106.70;;;38.90;;
3433;SDS011;1730;41.932;25.548;2023-03-01T08:44:08;95.13;;;35.00;;
3433;SDS011;1730;41.932;25.548;2023-03-01T08:46:36;95.53;;;37.70;;
3433;SDS011;1730;41.932;25.548;2023-03-01T08:49:13;98.80;;;37.20;;
3433;SDS011;1730;41.932;25.548;2023-03-01T08:51:41;72.23;;;30.37;;
3433;SDS011;1730;41.932;25.548;2023-03-01T08:54:09;61.63;;;28.67;;
3433;SDS011;1730;41.932;25.548;2023-03-01T08:56:37;61.27;;;29.23;;
3433;SDS011;1730;41.932;25.548;2023-03-01T08:59:03;66.17;;;32.47;;
3433;SDS011;1730;41.932;25.548;2023-03-01T09:01:29;55.13;;;28.70;;
3433;SDS011;1730;41.932;25.548;2023-03-01T09:03:55;71.93;;;34.07;;
3433;SDS011;1730;41.932;25.548;2023-03-01T09:06:21;81.50;;;37.10;;
3433;SDS011;1730;41.932;25.548;2023-03-01T09:08:47;146.53;;;49.57;;
3433;SDS011;1730;41.932;25.548;2023-03-01T09:11:15;204.57;;;59.20;;
3433;SDS011;1730;41.932;25.548;2023-03-01T09:13:45;182.53;;;54.83;;
3433;SDS011;1730;41.932;25.548;2023-03-01T09:16:12;170.60;;;51.30;;
3433;SDS011;1730;41.932;25.548;2023-03-01T09:18:39;131.57;;;46.47;;
3433;SDS011;1730;41.932;25.548;2023-03-01T09:21:06;135.03;;;54.43;;
3433;SDS011;1730;41.932;25.548;2023-03-01T09:23:37;98.00;;;40.07;;
3433;SDS011;1730;41.932;25.548;2023-03-01T09:26:04;64.67;;;31.73;;
3433;SDS011;1730;41.932;25.548;2023-03-01T09:28:38;39.90;;;25.27;;
3433;SDS011;1730;41.932;25.548;2023-03-01T09:31:05;35.30;;;21.73;;
3433;SDS011;1730;41.932;25.548;2023-03-01T09:33:32;29.83;;;20.50;;
3433;SDS011;1730;41.932;25.548;2023-03-01T09:35:58;28.13;;;20.70;;
3433;SDS011;1730;41.932;25.548;2023-03-01T09:38:25;23.57;;;18.00;;
3433;SDS011;1730;41.932;25.548;2023-03-01T09:40:52;20.40;;;15.90;;
3433;SDS011;1730;41.932;25.548;2023-03-01T09:43:21;25.73;;;18.57;;
3433;SDS011;1730;41.932;25.548;2023-03-01T09:45:58;27.40;;;18.87;;
3433;SDS011;1730;41.932;25.548;2023-03-01T09:48:29;31.73;;;24.10;;
3433;SDS011;1730;41.932;25.548;2023-03-01T09:51:02;24.20;;;18.33;;
3433;SDS011;1730;41.932;25.548;2023-03-01T09:53:34;25.73;;;19.07;;
3433;SDS011;1730;41.932;25.548;2023-03-01T09:58:54;16.67;;;14.07;;
3433;SDS011;1730;41.932;25.548;2023-03-01T10:01:29;20.63;;;17.43;;
3433;SDS011;1730;41.932;25.548;2023-03-01T10:07:03;19.03;;;16.30;;
3433;SDS011;1730;41.932;25.548;2023-03-01T10:09:43;24.57;;;17.93;;
3433;SDS011;1730;41.932;25.548;2023-03-01T10:12:12;18.30;;;15.47;;
3433;SDS011;1730;41.932;25.548;2023-03-01T10:14:54;17.70;;;15.80;;
3433;SDS011;1730;41.932;25.548;2023-03-01T10:17:50;24.63;;;18.77;;
3433;SDS011;1730;41.932;25.548;2023-03-01T10:20:22;25.67;;;18.73;;
3433;SDS011;1730;41.932;25.548;2023-03-01T10:22:49;26.80;;;19.87;;
3433;SDS011;1730;41.932;25.548;2023-03-01T10:28:16;30.80;;;21.23;;
3433;SDS011;1730;41.932;25.548;2023-03-01T10:31:01;37.13;;;25.10;;
3433;SDS011;1730;41.932;25.548;2023-03-01T10:33:29;29.50;;;23.10;;
3433;SDS011;1730;41.932;25.548;2023-03-01T10:35:57;28.57;;;20.10;;
3433;SDS011;1730;41.932;25.548;2023-03-01T10:38:23;28.00;;;20.17;;
3433;SDS011;1730;41.932;25.548;2023-03-01T10:43:18;38.13;;;26.17;;
3433;SDS011;1730;41.932;25.548;2023-03-01T10:45:45;35.90;;;25.60;;
3433;SDS011;1730;41.932;25.548;2023-03-01T10:48:15;23.13;;;19.40;;
3433;SDS011;1730;41.932;25.548;2023-03-01T10:51:06;29.40;;;22.03;;
3433;SDS011;1730;41.932;25.548;2023-03-01T10:53:41;27.50;;;21.50;;
3433;SDS011;1730;41.932;25.548;2023-03-01T10:56:11;20.57;;;16.70;;
3433;SDS011;1730;41.932;25.548;2023-03-01T10:58:39;16.53;;;14.83;;
3433;SDS011;1730;41.932;25.548;2023-03-01T11:01:25;24.97;;;17.90;;
3433;SDS011;1730;41.932;25.548;2023-03-01T11:04:08;24.77;;;19.10;;
3433;SDS011;1730;41.932;25.548;2023-03-01T11:06:36;60.40;;;33.93;;
3433;SDS011;1730;41.932;25.548;2023-03-01T11:12:05;54.27;;;33.40;;
3433;SDS011;1730;41.932;25.548;2023-03-01T11:14:38;46.60;;;30.30;;
3433;SDS011;1730;41.932;25.548;2023-03-01T11:17:23;48.80;;;30.00;;
3433;SDS011;1730;41.932;25.548;2023-03-01T11:20:02;54.30;;;33.83;;
3433;SDS011;1730;41.932;25.548;2023-03-01T11:22:30;41.50;;;26.47;;
3433;SDS011;1730;41.932;25.548;2023-03-01T11:24:59;36.20;;;25.10;;
3433;SDS011;1730;41.932;25.548;2023-03-01T11:27:32;30.77;;;20.70;;
3433;SDS011;1730;41.932;25.548;2023-03-01T11:35:46;24.73;;;19.70;;
3433;SDS011;1730;41.932;25.548;2023-03-01T11:38:24;27.90;;;20.60;;
3433;SDS011;1730;41.932;25.548;2023-03-01T11:40:57;28.87;;;22.40;;
3433;SDS011;1730;41.932;25.548;2023-03-01T12:00:22;38.30;;;26.40;;
3433;SDS011;1730;41.932;25.548;2023-03-01T12:43:05;23.53;;;18.13;;
3433;SDS011;1730;41.932;25.548;2023-03-01T12:45:48;25.17;;;20.03;;
3433;SDS011;1730;41.932;25.548;2023-03-01T12:48:19;20.47;;;18.17;;
3433;SDS011;1730;41.932;25.548;2023-03-01T12:51:08;31.60;;;19.77;;
3433;SDS011;1730;41.932;25.548;2023-03-01T12:53:40;23.87;;;18.70;;
3433;SDS011;1730;41.932;25.548;2023-03-01T12:56:10;23.97;;;17.60;;
3433;SDS011;1730;41.932;25.548;2023-03-01T12:58:46;23.70;;;16.13;;
3433;SDS011;1730;41.932;25.548;2023-03-01T13:15:24;24.07;;;18.13;;
3433;SDS011;1730;41.932;25.548;2023-03-01T13:23:10;24.37;;;19.77;;
3433;SDS011;1730;41.932;25.548;2023-03-01T13:26:03;27.23;;;17.73;;
3433;SDS011;1730;41.932;25.548;2023-03-01T13:31:55;21.20;;;17.30;;
3433;SDS011;1730;41.932;25.548;2023-03-01T13:34:00;27.10;;;20.10;;
3433;SDS011;1730;41.932;25.548;2023-03-01T13:42:03;27.53;;;19.80;;
3433;SDS011;1730;41.932;25.548;2023-03-01T13:46:59;26.27;;;18.40;;
3433;SDS011;1730;41.932;25.548;2023-03-01T13:49:55;22.40;;;17.70;;
3433;SDS011;1730;41.932;25.548;2023-03-01T13:57:38;30.83;;;20.57;;
3433;SDS011;1730;41.932;25.548;2023-03-01T14:00:04;24.63;;;17.80;;
3433;SDS011;1730;41.932;25.548;2023-03-01T14:02:31;24.17;;;19.97;;
3433;SDS011;1730;41.932;25.548;2023-03-01T14:05:00;25.77;;;18.87;;
3433;SDS011;1730;41.932;25.548;2023-03-01T14:07:27;29.50;;;21.50;;
3433;SDS011;1730;41.932;25.548;2023-03-01T14:09:57;27.70;;;19.37;;
3433;SDS011;1730;41.932;25.548;2023-03-01T14:15:15;31.53;;;20.80;;
3433;SDS011;1730;41.932;25.548;2023-03-01T14:20:41;23.60;;;19.10;;
3433;SDS011;1730;41.932;25.548;2023-03-01T14:23:14;27.10;;;19.80;;
3433;SDS011;1730;41.932;25.548;2023-03-01T14:25:47;27.33;;;23.10;;
3433;SDS011;1730;41.932;25.548;2023-03-01T14:28:16;24.43;;;19.03;;
3433;SDS011;1730;41.932;25.548;2023-03-01T14:30:47;28.23;;;20.60;;
3433;SDS011;1730;41.932;25.548;2023-03-01T14:33:25;24.17;;;20.17;;
3433;SDS011;1730;41.932;25.548;2023-03-01T14:35:58;27.20;;;20.50;;
3433;SDS011;1730;41.932;25.548;2023-03-01T14:38:44;26.30;;;19.97;;
3433;SDS011;1730;41.932;25.548;2023-03-01T14:41:12;28.07;;;21.40;;
3433;SDS011;1730;41.932;25.548;2023-03-01T14:43:41;24.10;;;18.87;;
3433;SDS011;1730;41.932;25.548;2023-03-01T14:46:20;23.43;;;19.03;;
3433;SDS011;1730;41.932;25.548;2023-03-01T14:48:56;29.17;;;22.37;;
3433;SDS011;1730;41.932;25.548;2023-03-01T14:51:27;30.03;;;21.37;;
3433;SDS011;1730;41.932;25.548;2023-03-01T14:53:52;27.80;;;19.60;;
3433;SDS011;1730;41.932;25.548;2023-03-01T14:56:18;21.77;;;18.07;;
3433;SDS011;1730;41.932;25.548;2023-03-01T14:58:44;22.60;;;18.27;;
3433;SDS011;1730;41.932;25.548;2023-03-01T15:01:16;27.43;;;20.30;;
3433;SDS011;1730;41.932;25.548;2023-03-01T15:03:44;28.43;;;21.23;;
3433;SDS011;1730;41.932;25.548;2023-03-01T15:06:14;25.93;;;19.97;;
3433;SDS011;1730;41.932;25.548;2023-03-01T15:08:42;26.70;;;19.93;;
3433;SDS011;1730;41.932;25.548;2023-03-01T15:11:19;27.70;;;19.80;;
3433;SDS011;1730;41.932;25.548;2023-03-01T15:13:48;31.07;;;21.37;;
3433;SDS011;1730;41.932;25.548;2023-03-01T15:16:17;24.50;;;18.90;;
3433;SDS011;1730;41.932;25.548;2023-03-01T15:18:59;27.57;;;20.63;;
3433;SDS011;1730;41.932;25.548;2023-03-01T15:21:33;26.33;;;20.00;;
3433;SDS011;1730;41.932;25.548;2023-03-01T15:24:06;28.27;;;20.90;;
3433;SDS011;1730;41.932;25.548;2023-03-01T15:26:45;21.47;;;17.40;;
3433;SDS011;1730;41.932;25.548;2023-03-01T15:29:32;28.53;;;19.27;;
3433;SDS011;1730;41.932;25.548;2023-03-01T15:34:52;30.33;;;22.17;;
3433;SDS011;1730;41.932;25.548;2023-03-01T15:40:17;29.77;;;21.63;;
3433;SDS011;1730;41.932;25.548;2023-03-01T15:42:56;29.47;;;23.23;;
3433;SDS011;1730;41.932;25.548;2023-03-01T15:45:24;27.93;;;22.10;;
3433;SDS011;1730;41.932;25.548;2023-03-01T15:47:53;31.13;;;23.90;;
3433;SDS011;1730;41.932;25.548;2023-03-01T15:50:30;31.87;;;22.97;;
3433;SDS011;1730;41.932;25.548;2023-03-01T15:53:00;30.47;;;23.27;;
3433;SDS011;1730;41.932;25.548;2023-03-01T15:55:31;35.70;;;25.50;;
3433;SDS011;1730;41.932;25.548;2023-03-01T15:57:59;35.70;;;26.20;;
3433;SDS011;1730;41.932;25.548;2023-03-01T16:00:28;31.30;;;23.53;;
3433;SDS011;1730;41.932;25.548;2023-03-01T16:02:54;40.27;;;24.63;;
3433;SDS011;1730;41.932;25.548;2023-03-01T16:05:28;31.80;;;22.83;;
3433;SDS011;1730;41.932;25.548;2023-03-01T16:07:55;31.07;;;22.70;;
3433;SDS011;1730;41.932;25.548;2023-03-01T16:10:21;35.60;;;25.30;;
3433;SDS011;1730;41.932;25.548;2023-03-01T16:12:47;40.30;;;28.60;;
3433;SDS011;1730;41.932;25.548;2023-03-01T16:15:17;39.37;;;27.07;;
3433;SDS011;1730;41.932;25.548;2023-03-01T16:17:51;45.30;;;25.67;;
3433;SDS011;1730;41.932;25.548;2023-03-01T16:20:20;53.07;;;35.23;;
3433;SDS011;1730;41.932;25.548;2023-03-01T16:22:46;40.07;;;26.43;;
3433;SDS011;1730;41.932;25.548;2023-03-01T16:25:13;35.07;;;24.40;;
3433;SDS011;1730;41.932;25.548;2023-03-01T16:27:44;35.63;;;24.73;;
3433;SDS011;1730;41.932;25.548;2023-03-01T16:30:12;34.73;;;21.57;;
3433;SDS011;1730;41.932;25.548;2023-03-01T16:32:40;30.97;;;21.83;;
3433;SDS011;1730;41.932;25.548;2023-03-01T16:35:07;32.03;;;24.40;;
3433;SDS011;1730;41.932;25.548;2023-03-01T16:37:34;28.37;;;20.83;;
3433;SDS011;1730;41.932;25.548;2023-03-01T16:40:01;32.07;;;24.27;;
3433;SDS011;1730;41.932;25.548;2023-03-01T16:42:32;41.20;;;25.80;;
3433;SDS011;1730;41.932;25.548;2023-03-01T16:44:58;35.80;;;25.70;;
3433;SDS011;1730;41.932;25.548;2023-03-01T16:47:24;26.57;;;20.57;;
3433;SDS011;1730;41.932;25.548;2023-03-01T16:49:53;36.60;;;26.87;;
3433;SDS011;1730;41.932;25.548;2023-03-01T16:52:19;37.17;;;23.53;;
3433;SDS011;1730;41.932;25.548;2023-03-01T16:54:45;35.17;;;25.07;;
3433;SDS011;1730;41.932;25.548;2023-03-01T16:57:11;30.33;;;23.90;;
3433;SDS011;1730;41.932;25.548;2023-03-01T16:59:39;32.90;;;22.73;;